Time;durP1;ratioP1;P1;durP2;ratioP2;P2;SDS_P1;SDS_P2;PMS_P1;PMS_P2;Temp;Humidity;BMP_temperature;BMP_pressure;BME280_temperature;BME280_humidity;BME280_pressure;Samples;Min_cycle;Max_cycle;Signal;HPM_P1;HPM_P2
2022/07/28 00:00:37;;;;;;;2.40;1.33;;;17.10;93.80;;;;;;5009774;28;20353;-86
2022/07/28 00:03:03;;;;;;;6.33;1.70;;;17.00;93.90;;;;;;5001602;28;20183;-85
2022/07/28 00:05:28;;;;;;;3.10;1.60;;;17.00;94.90;;;;;;5007197;28;20553;-85
2022/07/28 00:07:55;;;;;;;3.40;1.40;;;17.00;95.30;;;;;;5003489;28;21050;-86
2022/07/28 00:10:20;;;;;;;2.00;1.00;;;17.00;95.80;;;;;;5008687;28;20225;-86
2022/07/28 00:12:46;;;;;;;2.97;1.30;;;17.00;95.80;;;;;;5009101;28;20445;-86
2022/07/28 00:15:12;;;;;;;3.37;1.50;;;17.00;96.30;;;;;;5009561;28;20183;-85
2022/07/28 00:17:38;;;;;;;2.93;1.30;;;17.00;96.40;;;;;;5007442;28;20183;-85
2022/07/28 00:20:04;;;;;;;3.40;1.47;;;17.00;96.90;;;;;;5012148;28;20469;-85
2022/07/28 00:22:30;;;;;;;6.10;1.30;;;17.00;97.50;;;;;;5009673;28;20183;-85
2022/07/28 00:24:55;;;;;;;4.77;1.37;;;16.90;98.30;;;;;;5009656;28;20527;-86
2022/07/28 00:27:21;;;;;;;3.00;1.33;;;16.90;98.70;;;;;;5003971;28;20195;-86
2022/07/28 00:29:47;;;;;;;4.47;1.27;;;16.80;98.90;;;;;;5005969;28;20188;-86
2022/07/28 00:32:12;;;;;;;2.37;1.20;;;16.80;99.70;;;;;;5006929;28;20291;-85
2022/07/28 00:34:38;;;;;;;5.47;1.53;;;16.70;99.90;;;;;;5003089;28;20213;-85
2022/07/28 00:37:04;;;;;;;3.70;1.70;;;16.70;99.90;;;;;;5003364;28;20554;-87
2022/07/28 00:39:29;;;;;;;4.13;1.13;;;16.70;99.90;;;;;;5005526;28;20752;-85
2022/07/28 00:41:55;;;;;;;4.83;1.30;;;16.70;99.90;;;;;;5006513;28;20194;-86
2022/07/28 00:44:20;;;;;;;3.63;1.40;;;16.60;99.90;;;;;;5003609;28;20196;-85
2022/07/28 00:46:46;;;;;;;2.60;1.10;;;16.60;99.90;;;;;;5005121;28;20270;-86
2022/07/28 00:49:13;;;;;;;7.27;1.73;;;16.60;99.90;;;;;;5001375;28;20263;-85
2022/07/28 00:51:39;;;;;;;4.57;1.60;;;16.60;99.90;;;;;;5002784;28;20198;-86
2022/07/28 00:54:05;;;;;;;2.47;1.40;;;16.60;99.90;;;;;;5009051;28;20976;-86
2022/07/28 00:56:32;;;;;;;2.93;1.17;;;16.60;99.90;;;;;;5008357;28;20186;-87
2022/07/28 00:58:58;;;;;;;4.03;1.27;;;16.60;99.90;;;;;;5005092;28;20477;-86
2022/07/28 01:01:23;;;;;;;4.40;1.50;;;16.60;99.90;;;;;;5004525;28;21365;-86
2022/07/28 01:03:59;;;;;;;7.50;1.70;;;16.60;99.90;;;;;;5001944;28;20606;-85
2022/07/28 01:06:46;;;;;;;7.33;1.40;;;16.60;99.90;;;;;;5004561;28;20189;-86
2022/07/28 01:09:44;;;;;;;3.57;1.43;;;16.60;99.90;;;;;;5006556;28;20545;-86
2022/07/28 01:12:24;;;;;;;3.30;1.20;;;16.50;99.90;;;;;;5005843;28;20448;-86
2022/07/28 01:15:08;;;;;;;7.03;1.80;;;16.50;99.90;;;;;;5006228;28;20441;-85
2022/07/28 01:18:04;;;;;;;3.17;1.57;;;16.50;99.90;;;;;;5003337;28;20440;-85
2022/07/28 01:21:09;;;;;;;4.40;1.70;;;16.60;99.90;;;;;;5006078;28;20451;-85
2022/07/28 01:24:17;;;;;;;3.57;1.60;;;16.60;99.90;;;;;;4966931;28;20448;-86
2022/07/28 01:27:15;;;;;;;2.67;1.47;;;16.70;99.90;;;;;;4983492;28;20510;-86
2022/07/28 01:30:04;;;;;;;4.00;1.20;;;16.70;99.90;;;;;;5005381;28;20465;-85
2022/07/28 01:32:44;;;;;;;3.67;1.57;;;16.70;99.90;;;;;;5003364;28;21004;-86
2022/07/28 01:35:18;;;;;;;2.50;1.20;;;16.60;99.90;;;;;;5008502;28;20436;-85
2022/07/28 01:37:48;;;;;;;2.70;1.20;;;16.60;99.90;;;;;;5006655;28;20470;-87
2022/07/28 01:40:18;;;;;;;4.70;1.50;;;16.60;99.90;;;;;;5008385;28;20852;-86
2022/07/28 01:42:48;;;;;;;4.60;1.20;;;16.60;99.90;;;;;;5004319;28;20471;-85
2022/07/28 01:45:15;;;;;;;4.57;1.40;;;16.60;99.90;;;;;;5004463;28;20552;-86
2022/07/28 01:47:44;;;;;;;2.90;1.40;;;16.60;99.90;;;;;;5005553;28;20873;-86
2022/07/28 01:50:12;;;;;;;4.97;1.83;;;16.50;99.90;;;;;;5003975;28;20476;-84
2022/07/28 01:52:41;;;;;;;4.23;1.30;;;16.50;99.90;;;;;;5001796;28;20440;-88
2022/07/28 01:55:08;;;;;;;5.93;1.43;;;16.50;99.90;;;;;;5022328;28;20429;-85
2022/07/28 01:57:35;;;;;;;2.20;1.37;;;16.50;99.90;;;;;;4998966;28;20441;-85
2022/07/28 02:00:02;;;;;;;3.13;1.30;;;16.50;99.90;;;;;;5001506;28;20889;-86
2022/07/28 02:02:29;;;;;;;2.87;1.40;;;16.50;99.90;;;;;;5004259;28;20482;-85
2022/07/28 02:04:58;;;;;;;3.70;1.30;;;16.50;99.90;;;;;;5001404;28;20466;-86
2022/07/28 02:07:26;;;;;;;3.13;1.60;;;16.50;99.90;;;;;;5003015;28;20444;-86
2022/07/28 02:09:53;;;;;;;2.97;1.13;;;16.40;99.90;;;;;;5005094;28;21229;-85
2022/07/28 02:12:20;;;;;;;2.80;1.40;;;16.40;99.90;;;;;;5023125;28;20445;-86
2022/07/28 02:14:48;;;;;;;2.50;1.40;;;16.40;99.90;;;;;;5004078;28;20932;-85
2022/07/28 02:17:24;;;;;;;4.57;1.20;;;16.40;99.90;;;;;;5006261;28;20436;-86
2022/07/28 02:19:51;;;;;;;2.97;1.20;;;16.40;99.90;;;;;;5002542;28;20448;-85
2022/07/28 02:22:17;;;;;;;3.17;1.27;;;16.40;99.90;;;;;;5000681;28;20476;-88
2022/07/28 02:24:45;;;;;;;2.37;1.33;;;16.30;99.90;;;;;;5005847;28;20535;-86
2022/07/28 02:27:18;;;;;;;3.23;1.50;;;16.40;99.90;;;;;;5005307;28;20947;-85
2022/07/28 02:29:48;;;;;;;4.90;1.70;;;16.30;99.90;;;;;;5002454;28;20504;-86
2022/07/28 02:32:26;;;;;;;5.33;1.17;;;16.30;99.90;;;;;;5009794;28;20468;-85
2022/07/28 02:34:52;;;;;;;2.00;1.37;;;16.30;99.90;;;;;;5005620;28;20436;-86
2022/07/28 02:37:18;;;;;;;2.03;1.10;;;16.30;99.90;;;;;;5004289;28;20444;-86
2022/07/28 02:39:54;;;;;;;2.90;1.10;;;16.20;99.90;;;;;;5007065;28;20462;-86
2022/07/28 02:42:26;;;;;;;2.60;1.30;;;16.20;99.90;;;;;;5005612;28;20615;-86
2022/07/28 02:44:57;;;;;;;5.07;1.60;;;16.10;99.90;;;;;;5010989;28;20940;-85
2022/07/28 02:47:25;;;;;;;2.40;1.30;;;16.10;99.90;;;;;;5010017;28;20493;-85
2022/07/28 02:49:52;;;;;;;3.00;1.60;;;16.00;99.90;;;;;;5010639;28;21033;-85
2022/07/28 02:52:21;;;;;;;2.10;1.17;;;16.00;99.90;;;;;;5007406;28;20534;-85
2022/07/28 02:54:50;;;;;;;3.80;1.23;;;16.00;99.90;;;;;;5010218;28;20435;-85
2022/07/28 02:57:17;;;;;;;2.50;1.37;;;15.90;99.90;;;;;;5009606;28;20929;-84
2022/07/28 02:59:43;;;;;;;8.63;2.00;;;15.90;99.90;;;;;;5006579;28;20472;-86
2022/07/28 03:02:09;;;;;;;4.17;1.57;;;15.80;99.90;;;;;;5009661;28;20443;-85
2022/07/28 03:07:20;;;;;;;5.67;1.77;;;15.70;99.90;;;;;;5009231;28;20455;-86
2022/07/28 03:09:47;;;;;;;2.83;1.60;;;15.70;99.90;;;;;;5009056;28;20471;-85
2022/07/28 03:12:13;;;;;;;1.73;1.37;;;15.60;99.90;;;;;;5006003;28;20664;-86
2022/07/28 03:14:39;;;;;;;2.50;1.37;;;15.60;99.90;;;;;;5007535;28;20456;-85
2022/07/28 03:17:05;;;;;;;2.10;1.60;;;15.60;99.90;;;;;;5007000;28;20446;-86
2022/07/28 03:19:30;;;;;;;3.30;1.83;;;15.50;99.90;;;;;;5008216;28;20467;-85
2022/07/28 03:21:56;;;;;;;3.47;1.60;;;15.40;99.90;;;;;;5008017;28;20189;-84
2022/07/28 03:24:29;;;;;;;4.73;1.67;;;15.40;99.90;;;;;;5009712;28;20193;-86
2022/07/28 03:27:01;;;;;;;7.43;1.20;;;15.40;99.90;;;;;;5004010;28;20188;-85
2022/07/28 03:29:30;;;;;;;3.63;1.60;;;15.30;99.90;;;;;;5006128;28;20553;-85
2022/07/28 03:31:57;;;;;;;2.53;1.40;;;15.30;99.90;;;;;;5005064;28;20476;-86
2022/07/28 03:34:23;;;;;;;2.90;1.73;;;15.30;99.90;;;;;;5008863;28;20438;-85
2022/07/28 03:36:55;;;;;;;2.47;1.40;;;15.30;99.90;;;;;;5007394;28;22348;-85
2022/07/28 03:39:23;;;;;;;2.60;1.70;;;15.30;99.90;;;;;;5004480;28;20507;-86
2022/07/28 03:41:52;;;;;;;4.60;1.87;;;15.30;99.90;;;;;;5008494;28;20489;-86
2022/07/28 03:44:18;;;;;;;6.80;1.63;;;15.20;99.90;;;;;;5009618;28;20473;-85
2022/07/28 03:46:45;;;;;;;3.30;1.90;;;15.20;99.90;;;;;;5011344;28;20439;-87
2022/07/28 03:49:10;;;;;;;5.77;1.70;;;15.20;99.90;;;;;;5007917;28;20459;-84
2022/07/28 03:51:36;;;;;;;6.53;1.87;;;15.10;99.90;;;;;;5009531;28;20437;-86
2022/07/28 03:54:02;;;;;;;7.50;1.50;;;15.10;99.90;;;;;;5010451;28;20196;-85
2022/07/28 03:56:27;;;;;;;7.37;2.30;;;15.10;99.90;;;;;;5006043;28;20443;-85
2022/07/28 03:58:53;;;;;;;3.83;1.40;;;15.10;99.90;;;;;;5006632;28;20637;-86
2022/07/28 04:01:18;;;;;;;3.47;1.90;;;15.10;99.90;;;;;;5007809;28;20255;-85
2022/07/28 04:03:44;;;;;;;5.40;2.23;;;15.10;99.90;;;;;;5005927;28;20548;-85
2022/07/28 04:06:13;;;;;;;3.10;1.60;;;15.10;99.90;;;;;;5002877;28;20188;-85
2022/07/28 04:08:40;;;;;;;3.43;1.60;;;15.10;99.90;;;;;;5007396;28;20203;-85
2022/07/28 04:11:06;;;;;;;3.80;1.50;;;15.10;99.90;;;;;;5003539;28;20649;-85
2022/07/28 04:13:31;;;;;;;2.70;1.90;;;15.10;99.90;;;;;;5007941;28;20427;-83
2022/07/28 04:15:58;;;;;;;2.33;1.77;;;15.10;99.90;;;;;;5008644;28;20848;-85
2022/07/28 04:18:23;;;;;;;5.80;1.60;;;15.10;99.90;;;;;;5007481;28;20200;-86
2022/07/28 04:20:49;;;;;;;2.37;1.87;;;15.10;99.90;;;;;;5009384;28;20438;-85
2022/07/28 04:23:15;;;;;;;8.53;2.00;;;15.10;99.90;;;;;;5008065;28;20610;-86
2022/07/28 04:25:41;;;;;;;5.40;2.10;;;15.10;99.90;;;;;;5007432;28;20434;-86
2022/07/28 04:28:06;;;;;;;3.77;1.40;;;15.10;99.90;;;;;;5005701;28;20213;-85
2022/07/28 04:30:32;;;;;;;3.43;2.20;;;15.20;99.90;;;;;;5002151;28;20208;-86
2022/07/28 04:32:57;;;;;;;2.80;2.00;;;15.20;99.90;;;;;;5007678;28;20606;-86
2022/07/28 04:35:23;;;;;;;9.27;1.77;;;15.20;99.90;;;;;;5008292;28;20192;-86
2022/07/28 04:37:49;;;;;;;4.27;1.73;;;15.20;99.90;;;;;;5006937;28;20215;-86
2022/07/28 04:40:15;;;;;;;7.40;2.00;;;15.30;99.90;;;;;;5012652;28;20814;-85
2022/07/28 04:42:41;;;;;;;4.93;2.07;;;15.30;99.90;;;;;;5007267;28;20186;-85
2022/07/28 04:45:10;;;;;;;3.90;2.00;;;15.30;99.90;;;;;;5007975;28;20338;-86
2022/07/28 04:47:36;;;;;;;11.23;2.20;;;15.40;99.90;;;;;;5004958;28;20438;-85
2022/07/28 04:50:03;;;;;;;3.37;1.73;;;15.40;99.90;;;;;;5007420;28;20471;-85
2022/07/28 04:52:29;;;;;;;4.80;2.03;;;15.50;99.90;;;;;;5003144;28;20864;-85
2022/07/28 04:54:55;;;;;;;4.23;1.93;;;15.60;99.90;;;;;;5008679;28;20449;-86
2022/07/28 04:57:20;;;;;;;4.50;1.50;;;15.70;99.90;;;;;;5002849;28;20193;-85
2022/07/28 04:59:46;;;;;;;5.10;2.07;;;15.80;99.90;;;;;;5007054;28;20197;-85
2022/07/28 05:02:14;;;;;;;3.40;2.00;;;15.90;99.90;;;;;;5005565;28;20188;-85
2022/07/28 05:04:39;;;;;;;7.87;2.40;;;16.10;99.90;;;;;;5006356;28;20190;-86
2022/07/28 05:07:05;;;;;;;4.90;2.47;;;16.20;99.90;;;;;;5001852;28;20514;-86
2022/07/28 05:09:31;;;;;;;6.13;2.30;;;16.40;99.90;;;;;;5006091;28;20698;-86
2022/07/28 05:11:57;;;;;;;6.00;1.70;;;16.60;99.90;;;;;;5003601;28;20441;-85
2022/07/28 05:14:23;;;;;;;6.20;1.83;;;16.80;99.90;;;;;;5006907;28;20444;-85
2022/07/28 05:16:51;;;;;;;4.60;1.70;;;17.00;99.90;;;;;;5006096;28;20438;-86
2022/07/28 05:19:17;;;;;;;9.13;2.07;;;17.20;99.90;;;;;;5007434;28;20466;-86
2022/07/28 05:21:43;;;;;;;6.40;2.10;;;17.40;99.90;;;;;;5006736;28;20524;-85
2022/07/28 05:24:09;;;;;;;2.40;1.77;;;17.50;99.90;;;;;;5003809;28;22203;-86
2022/07/28 05:26:35;;;;;;;6.23;1.77;;;17.70;99.90;;;;;;5008813;28;20262;-86
2022/07/28 05:29:01;;;;;;;7.60;2.40;;;17.80;99.90;;;;;;5002047;28;20286;-85
2022/07/28 05:31:27;;;;;;;5.20;2.20;;;17.90;99.90;;;;;;5007006;28;20455;-84
2022/07/28 05:33:52;;;;;;;5.57;1.70;;;18.00;99.90;;;;;;5006187;28;20454;-84
2022/07/28 05:36:18;;;;;;;3.50;2.10;;;18.10;99.90;;;;;;5007296;28;20194;-84
2022/07/28 05:38:43;;;;;;;13.60;2.33;;;18.20;99.90;;;;;;5008021;28;20286;-84
2022/07/28 05:41:12;;;;;;;4.23;2.40;;;18.40;99.90;;;;;;5005213;28;20193;-84
2022/07/28 05:43:38;;;;;;;2.33;1.73;;;18.60;99.90;;;;;;5010051;28;20714;-83
2022/07/28 05:46:04;;;;;;;5.57;1.90;;;18.70;99.90;;;;;;5011376;28;20442;-83
2022/07/28 05:48:30;;;;;;;3.43;2.60;;;18.90;99.90;;;;;;5008379;28;20476;-86
2022/07/28 05:50:56;;;;;;;9.43;2.33;;;19.10;99.90;;;;;;5007399;28;20220;-83
2022/07/28 05:53:22;;;;;;;4.60;1.90;;;19.30;99.90;;;;;;5013372;28;20623;-83
2022/07/28 05:55:49;;;;;;;4.07;1.90;;;19.70;99.90;;;;;;5010431;28;20465;-86
2022/07/28 05:58:14;;;;;;;3.67;1.77;;;20.40;99.90;;;;;;5006641;28;20506;-83
2022/07/28 06:00:40;;;;;;;3.70;1.90;;;21.60;99.90;;;;;;5012711;23;20506;-85
2022/07/28 06:03:09;;;;;;;9.90;2.30;;;21.90;99.90;;;;;;4988761;28;20177;-86
2022/07/28 06:05:36;;;;;;;3.50;1.67;;;22.00;99.90;;;;;;4992896;28;20428;-87
2022/07/28 06:08:04;;;;;;;8.63;2.80;;;23.00;99.90;;;;;;5004342;28;20831;-89
2022/07/28 06:10:57;;;;;;;4.30;1.80;;;23.20;99.90;;;;;;4976785;28;20483;-89
2022/07/28 06:13:23;;;;;;;3.63;1.73;;;23.80;99.90;;;;;;4974950;28;20431;-90
2022/07/28 06:15:51;;;;;;;3.90;2.63;;;24.00;99.90;;;;;;4975358;28;20501;-89
2022/07/28 06:18:21;;;;;;;4.43;2.10;;;25.50;99.90;;;;;;4975002;28;20191;-89
2022/07/28 06:20:48;;;;;;;6.00;1.80;;;26.40;99.90;;;;;;4982083;28;20451;-89
2022/07/28 06:23:22;;;;;;;4.17;1.63;;;27.40;99.90;;;;;;4973696;28;20890;-89
2022/07/28 06:25:49;;;;;;;5.00;1.90;;;27.20;99.90;;;;;;4979655;28;20442;-85
2022/07/28 06:28:17;;;;;;;5.83;2.83;;;26.70;97.90;;;;;;4971327;28;20439;-85
2022/07/28 06:30:47;;;;;;;7.17;2.40;;;27.00;97.20;;;;;;4975960;28;20566;-87
2022/07/28 06:33:16;;;;;;;7.87;2.17;;;26.80;94.50;;;;;;4991895;28;20450;-85
2022/07/28 06:35:45;;;;;;;4.43;1.90;;;26.10;91.60;;;;;;4974748;28;20505;-85
2022/07/28 06:38:10;;;;;;;5.37;1.83;;;25.50;88.80;;;;;;4987691;28;20445;-85
2022/07/28 06:40:36;;;;;;;5.60;2.53;;;25.20;85.00;;;;;;4972573;28;20466;-85
2022/07/28 06:43:02;;;;;;;5.50;2.20;;;24.90;83.40;;;;;;4971629;28;20260;-85
2022/07/28 06:45:28;;;;;;;3.40;2.03;;;24.50;81.10;;;;;;4973439;28;20279;-85
2022/07/28 06:47:53;;;;;;;3.70;1.90;;;24.30;77.80;;;;;;4971723;28;20506;-85
2022/07/28 06:50:20;;;;;;;5.33;2.13;;;24.40;78.10;;;;;;4969559;28;20645;-84
2022/07/28 06:52:46;;;;;;;6.90;2.07;;;24.70;78.60;;;;;;4971949;28;20266;-87
2022/07/28 06:55:14;;;;;;;2.47;2.00;;;26.00;83.40;;;;;;4976744;28;20530;-87
2022/07/28 06:57:41;;;;;;;6.70;2.43;;;27.90;90.00;;;;;;4976556;28;20192;-89
2022/07/28 07:00:09;;;;;;;6.70;2.40;;;29.80;90.70;;;;;;4978547;28;20494;-88
2022/07/28 07:02:42;;;;;;;8.80;2.07;;;31.40;91.50;;;;;;4973044;28;20508;-86
2022/07/28 07:05:13;;;;;;;5.60;1.90;;;36.40;97.50;;;;;;4974202;28;20446;-86
2022/07/28 07:07:41;;;;;;;3.60;1.83;;;41.50;94.60;;;;;;4973987;28;20463;-87
2022/07/28 07:10:22;;;;;;;7.13;1.80;;;44.00;84.90;;;;;;4974877;28;20463;-88
2022/07/28 07:12:48;;;;;;;7.13;1.90;;;46.90;78.30;;;;;;4974960;28;20434;-87
2022/07/28 07:15:13;;;;;;;4.33;1.30;;;50.10;69.60;;;;;;4977396;28;20449;-87
2022/07/28 07:17:41;;;;;;;3.85;1.73;;;52.10;58.90;;;;;;4979284;28;20188;-87
2022/07/28 07:20:12;;;;;;;6.95;1.98;;;53.00;47.40;;;;;;4980602;28;20218;-87
2022/07/28 07:22:48;;;;;;;4.60;1.98;;;53.80;39.40;;;;;;4994342;28;20184;-88
2022/07/28 07:25:16;;;;;;;7.88;1.88;;;54.10;29.70;;;;;;4971939;28;20184;-85
2022/07/28 07:27:42;;;;;;;3.70;1.40;;;53.50;22.80;;;;;;4974953;28;20640;-86
2022/07/28 07:30:08;;;;;;;3.83;1.45;;;53.50;18.80;;;;;;4975891;28;20226;-87
2022/07/28 07:32:34;;;;;;;3.28;1.70;;;55.00;16.50;;;;;;4975088;28;20199;-87
2022/07/28 07:35:00;;;;;;;3.65;1.60;;;55.90;14.20;;;;;;4975243;28;20609;-86
2022/07/28 07:37:26;;;;;;;3.10;1.30;;;54.20;9.10;;;;;;4974281;28;20184;-86
2022/07/28 07:39:51;;;;;;;5.83;1.90;;;52.00;3.50;;;;;;4975039;28;20269;-86
2022/07/28 07:42:17;;;;;;;3.50;1.50;;;52.20;3.30;;;;;;4972438;28;20320;-87
2022/07/28 07:44:42;;;;;;;5.03;1.60;;;52.20;1.40;;;;;;4973079;28;20183;-86
2022/07/28 07:47:08;;;;;;;3.28;1.85;;;53.00;1.30;;;;;;4969366;28;20642;-85
2022/07/28 07:49:34;;;;;;;3.93;1.67;;;53.00;1.00;;;;;;4975764;28;20211;-88
2022/07/28 07:52:00;;;;;;;3.80;1.50;;;50.40;1.00;;;;;;4968002;28;20461;-85
2022/07/28 07:54:25;;;;;;;2.70;1.40;;;52.40;1.00;;;;;;4971705;28;20184;-86
2022/07/28 07:56:51;;;;;;;10.10;2.10;;;53.30;1.00;;;;;;4971467;28;20195;-86
2022/07/28 07:59:16;;;;;;;4.10;1.80;;;52.40;1.00;;;;;;4970045;28;20239;-86
2022/07/28 08:01:42;;;;;;;3.80;1.48;;;53.90;1.00;;;;;;4974448;28;20679;-85
2022/07/28 08:04:07;;;;;;;4.82;1.92;;;54.60;1.00;;;;;;4973519;28;20188;-86
2022/07/28 08:06:33;;;;;;;7.90;1.75;;;54.70;1.00;;;;;;4971742;28;20183;-86
2022/07/28 08:08:58;;;;;;;2.72;1.63;;;54.50;1.00;;;;;;4971945;28;20183;-85
2022/07/28 08:11:24;;;;;;;5.57;1.65;;;54.40;1.00;;;;;;4972615;28;20664;-86
2022/07/28 08:13:49;;;;;;;2.15;1.40;;;54.30;1.00;;;;;;4972335;28;20826;-86
2022/07/28 08:16:15;;;;;;;4.18;1.70;;;54.70;1.00;;;;;;4970767;28;20192;-86
2022/07/28 08:18:41;;;;;;;3.53;1.42;;;54.90;1.00;;;;;;4971378;28;20184;-86
2022/07/28 08:21:06;;;;;;;4.97;1.40;;;54.90;1.00;;;;;;4968001;28;20237;-86
2022/07/28 08:23:32;;;;;;;6.22;1.80;;;54.60;1.00;;;;;;4972522;28;20195;-86
2022/07/28 08:25:58;;;;;;;5.97;1.92;;;54.20;1.00;;;;;;4972279;28;20180;-86
2022/07/28 08:28:23;;;;;;;4.97;1.90;;;53.40;1.00;;;;;;4969988;28;20179;-86
2022/07/28 08:30:49;;;;;;;8.33;1.93;;;53.00;1.00;;;;;;4974204;28;20634;-86
2022/07/28 08:33:14;;;;;;;6.13;1.70;;;52.80;1.00;;;;;;4973844;28;20249;-86
2022/07/28 08:35:40;;;;;;;3.43;1.33;;;52.60;1.00;;;;;;4973130;28;20184;-86
2022/07/28 08:38:06;;;;;;;4.40;1.37;;;52.30;1.00;;;;;;4967385;28;20234;-84
2022/07/28 08:40:33;;;;;;;6.50;1.43;;;52.20;1.00;;;;;;4968324;28;20227;-87
2022/07/28 08:43:29;;;;;;;4.13;1.40;;;52.70;1.00;;;;;;4970854;28;20213;-84
2022/07/28 08:45:57;;;;;;;3.63;1.20;;;51.50;1.00;;;;;;4985127;28;20427;-85
2022/07/28 08:48:23;;;;;;;3.00;1.47;;;51.30;1.00;;;;;;4974370;28;20435;-85
2022/07/28 08:50:49;;;;;;;4.50;1.33;;;50.80;1.00;;;;;;4973513;28;20533;-86
2022/07/28 08:53:17;;;;;;;3.57;1.60;;;50.30;1.00;;;;;;4982340;28;20545;-86
2022/07/28 08:55:43;;;;;;;4.37;1.50;;;50.30;1.00;;;;;;4979589;28;20684;-85
2022/07/28 08:58:11;;;;;;;2.63;1.27;;;50.20;1.00;;;;;;4974275;28;20521;-85
2022/07/28 09:00:37;;;;;;;4.97;1.20;;;50.50;1.00;;;;;;4976154;28;20215;-85
2022/07/28 09:03:03;;;;;;;3.03;1.50;;;50.00;1.00;;;;;;4976812;28;20478;-80
2022/07/28 09:05:29;;;;;;;7.57;1.90;;;49.50;1.00;;;;;;4974952;28;20250;-85
2022/07/28 09:07:54;;;;;;;2.40;1.10;;;49.60;1.00;;;;;;4983721;28;20419;-84
2022/07/28 09:10:20;;;;;;;4.07;1.60;;;49.60;1.00;;;;;;4975633;28;20457;-84
2022/07/28 09:12:46;;;;;;;3.00;1.30;;;49.90;1.00;;;;;;4975751;28;20187;-84
2022/07/28 09:15:12;;;;;;;2.07;1.17;;;49.80;1.00;;;;;;4988919;28;20434;-82
2022/07/28 09:17:39;;;;;;;3.10;1.60;;;49.80;1.00;;;;;;4994561;28;20203;-85
2022/07/28 09:20:05;;;;;;;4.23;1.40;;;50.00;1.00;;;;;;4994545;28;20505;-85
2022/07/28 09:22:32;;;;;;;3.23;1.20;;;49.80;1.00;;;;;;4994917;28;20473;-85
2022/07/28 09:24:59;;;;;;;3.20;1.30;;;49.60;1.00;;;;;;4995325;28;20441;-85
2022/07/28 09:27:25;;;;;;;6.33;1.90;;;49.80;1.00;;;;;;4994212;28;20437;-83
2022/07/28 09:29:58;;;;;;;5.17;1.53;;;50.40;1.00;;;;;;4995256;28;20446;-85
2022/07/28 09:32:26;;;;;;;7.23;1.33;;;50.60;1.00;;;;;;4993590;28;20207;-85
2022/07/28 09:34:51;;;;;;;2.03;1.13;;;49.90;1.00;;;;;;4994052;28;20825;-84
2022/07/28 09:37:22;;;;;;;4.10;1.30;;;49.40;1.00;;;;;;4995681;28;20438;-85
2022/07/28 09:39:49;;;;;;;4.57;1.67;;;48.40;1.00;;;;;;4997305;28;20699;-84
2022/07/28 09:42:17;;;;;;;6.30;1.30;;;48.30;1.00;;;;;;4996160;28;20794;-84
2022/07/28 09:44:43;;;;;;;3.87;1.40;;;48.10;1.00;;;;;;4997107;28;20510;-85
2022/07/28 09:47:31;;;;;;;2.87;1.13;;;47.90;1.00;;;;;;4979802;28;20459;-83
2022/07/28 09:49:57;;;;;;;4.13;1.47;;;48.00;1.00;;;;;;4976681;28;20299;-84
2022/07/28 09:52:31;;;;;;;2.80;1.60;;;47.90;1.00;;;;;;4976874;28;20522;-84
2022/07/28 09:55:06;;;;;;;7.37;1.73;;;47.90;1.00;;;;;;4995685;28;20190;-84
2022/07/28 09:57:34;;;;;;;4.33;1.23;;;47.70;1.00;;;;;;4994196;28;20615;-84
2022/07/28 10:00:00;;;;;;;4.10;1.40;;;47.30;1.00;;;;;;4995464;28;20477;-84
2022/07/28 10:02:28;;;;;;;6.53;1.40;;;47.00;1.00;;;;;;4978416;28;20515;-84
2022/07/28 10:04:54;;;;;;;3.43;1.23;;;46.90;1.00;;;;;;4975401;28;20944;-84
2022/07/28 10:07:20;;;;;;;4.00;1.40;;;46.30;1.00;;;;;;4977293;28;20451;-84
2022/07/28 10:10:00;;;;;;;2.33;1.33;;;45.40;1.00;;;;;;4976560;28;20479;-84
2022/07/28 10:12:31;;;;;;;4.27;1.70;;;45.00;1.00;;;;;;4976471;28;20486;-84
2022/07/28 10:16:09;;;;;;;6.80;1.63;;;44.80;1.00;;;;;;4976573;28;20459;-84
2022/07/28 10:17:55;;;;;;;4.50;1.20;;;44.10;1.00;;;;;;4975568;28;20522;-84
2022/07/28 10:20:22;;;;;;;10.13;1.17;;;44.50;1.00;;;;;;4976118;28;20482;-84
2022/07/28 10:22:51;;;;;;;4.73;1.80;;;43.70;1.00;;;;;;4975858;28;20794;-85
2022/07/28 10:25:18;;;;;;;3.00;1.63;;;42.60;1.00;;;;;;4976673;28;20432;-84
2022/07/28 10:27:47;;;;;;;2.63;1.10;;;42.00;1.00;;;;;;4976066;28;20454;-84
2022/07/28 10:30:13;;;;;;;7.87;1.90;;;41.20;1.00;;;;;;4990367;28;20442;-84
2022/07/28 10:32:43;;;;;;;3.67;1.37;;;40.30;1.00;;;;;;4995677;28;20953;-85
2022/07/28 10:35:14;;;;;;;4.80;1.40;;;41.00;1.00;;;;;;4995964;28;20430;-85
2022/07/28 10:37:50;;;;;;;5.13;1.30;;;41.90;1.00;;;;;;4980650;28;20843;-84
2022/07/28 10:40:17;;;;;;;3.60;1.40;;;41.90;1.00;;;;;;4976265;28;21058;-84
2022/07/28 10:42:42;;;;;;;4.03;1.40;;;41.90;1.00;;;;;;4976699;28;20455;-84
2022/07/28 10:45:12;;;;;;;7.33;1.60;;;42.30;1.00;;;;;;4977040;28;20424;-83
2022/07/28 10:47:38;;;;;;;5.90;1.83;;;42.40;1.00;;;;;;4975028;28;20619;-84
2022/07/28 10:50:04;;;;;;;4.97;1.60;;;42.40;1.00;;;;;;4978335;28;20462;-84
2022/07/28 10:52:30;;;;;;;2.43;1.20;;;42.60;1.00;;;;;;4979845;28;20192;-84
2022/07/28 10:55:08;;;;;;;6.47;1.57;;;41.80;1.00;;;;;;4989759;28;20461;-84
2022/07/28 10:57:40;;;;;;;3.00;1.20;;;42.00;1.00;;;;;;5007829;28;20438;-83
2022/07/28 11:00:09;;;;;;;4.20;1.67;;;42.30;1.00;;;;;;4999685;28;20485;-84
2022/07/28 11:02:55;;;;;;;3.00;1.10;;;42.00;1.00;;;;;;4993981;28;20457;-85
2022/07/28 11:05:26;;;;;;;2.80;1.20;;;42.10;1.00;;;;;;4990704;28;20428;-85
2022/07/28 11:07:52;;;;;;;3.67;1.37;;;42.20;1.00;;;;;;4979840;28;20609;-84
2022/07/28 11:10:19;;;;;;;3.07;1.33;;;41.80;1.00;;;;;;4981373;28;20472;-84
2022/07/28 11:12:47;;;;;;;4.60;1.67;;;41.80;1.00;;;;;;4981695;28;20641;-84
2022/07/28 11:15:27;;;;;;;5.87;1.43;;;41.80;1.00;;;;;;4981680;28;20440;-83
2022/07/28 11:17:57;;;;;;;4.50;1.60;;;42.00;1.00;;;;;;4981395;28;20443;-84
2022/07/28 11:20:43;;;;;;;4.53;1.73;;;42.00;1.00;;;;;;4981733;28;20473;-84
2022/07/28 11:23:45;;;;;;;5.47;1.10;;;41.30;1.00;;;;;;4990777;28;20431;-84
2022/07/28 11:26:21;;;;;;;2.80;1.10;;;40.80;1.00;;;;;;4996614;28;20450;-83
2022/07/28 11:29:05;;;;;;;5.93;1.37;;;40.80;1.00;;;;;;4988443;28;20426;-83
2022/07/28 11:31:43;;;;;;;4.17;1.33;;;40.90;1.00;;;;;;4981521;28;20438;-84
2022/07/28 11:34:09;;;;;;;2.90;1.13;;;40.90;1.00;;;;;;5000229;28;20426;-84
2022/07/28 11:36:57;;;;;;;4.47;1.30;;;40.80;1.00;;;;;;4991236;28;20498;-84
2022/07/28 11:39:24;;;;;;;3.97;1.13;;;40.30;1.00;;;;;;4986229;28;20206;-84
2022/07/28 11:41:50;;;;;;;5.57;1.80;;;40.40;1.00;;;;;;4996627;28;20422;-84
2022/07/28 11:44:32;;;;;;;4.70;1.60;;;41.20;1.00;;;;;;4983009;28;20424;-84
2022/07/28 11:47:21;;;;;;;4.37;1.40;;;40.60;1.00;;;;;;4979692;28;20222;-84
2022/07/28 11:50:13;;;;;;;5.23;1.30;;;40.40;1.00;;;;;;4981721;28;20506;-85
2022/07/28 11:52:39;;;;;;;2.37;1.10;;;40.80;1.00;;;;;;4983136;28;20423;-84
2022/07/28 11:55:05;;;;;;;4.03;1.63;;;41.30;1.00;;;;;;4988132;28;20507;-83
2022/07/28 11:57:39;;;;;;;3.80;1.10;;;40.40;1.00;;;;;;4981951;28;20831;-84
2022/07/28 12:00:06;;;;;;;2.60;1.30;;;40.80;1.00;;;;;;5037722;23;20228;-82
2022/07/28 12:02:33;;;;;;;2.67;1.03;;;41.30;1.00;;;;;;5044927;28;20949;-82
2022/07/28 12:05:10;;;;;;;3.50;1.23;;;42.00;1.00;;;;;;5013729;28;20422;-82
2022/07/28 12:07:42;;;;;;;4.00;1.10;;;41.60;1.00;;;;;;5031090;28;20417;-82
2022/07/28 12:10:28;;;;;;;5.20;1.60;;;41.40;1.00;;;;;;5037391;28;20525;-82
2022/07/28 12:12:59;;;;;;;3.97;1.40;;;41.50;1.00;;;;;;5003584;28;20431;-82
2022/07/28 12:15:26;;;;;;;3.90;1.40;;;40.90;1.00;;;;;;4997544;28;20441;-81
2022/07/28 12:17:52;;;;;;;3.17;1.50;;;39.80;1.00;;;;;;5009313;28;20481;-82
2022/07/28 12:20:18;;;;;;;2.30;1.37;;;39.10;1.00;;;;;;5008221;28;20465;-82
2022/07/28 12:23:06;;;;;;;2.43;1.23;;;38.50;1.00;;;;;;5011062;28;20667;-81
2022/07/28 12:25:45;;;;;;;2.10;1.50;;;38.00;1.00;;;;;;4996794;28;20183;-81
2022/07/28 12:28:21;;;;;;;2.63;1.30;;;37.30;1.00;;;;;;5008135;28;20423;-81
2022/07/28 12:30:48;;;;;;;4.73;1.87;;;37.50;1.00;;;;;;4999736;28;20462;-81
2022/07/28 12:33:22;;;;;;;2.20;1.10;;;38.20;1.00;;;;;;5009323;28;20438;-82
2022/07/28 12:35:51;;;;;;;7.43;1.40;;;39.10;1.00;;;;;;5006327;28;20418;-82
2022/07/28 12:38:19;;;;;;;4.10;1.40;;;39.40;1.00;;;;;;4998031;28;20454;-81
2022/07/28 12:40:45;;;;;;;3.70;1.50;;;39.20;1.00;;;;;;5003460;28;20465;-82
2022/07/28 12:43:11;;;;;;;4.90;1.17;;;38.80;1.00;;;;;;5008340;28;21213;-81
2022/07/28 12:45:44;;;;;;;4.10;1.33;;;38.70;1.00;;;;;;5006372;28;20430;-81
2022/07/28 12:48:10;;;;;;;5.03;1.47;;;38.70;1.00;;;;;;5012912;28;20418;-81
2022/07/28 12:50:37;;;;;;;3.83;1.57;;;39.00;1.00;;;;;;5011807;28;20465;-82
2022/07/28 12:53:08;;;;;;;3.10;1.20;;;39.50;1.00;;;;;;5005235;28;20472;-82
2022/07/28 12:55:35;;;;;;;6.07;1.50;;;39.90;1.00;;;;;;5010323;28;20457;-81
2022/07/28 12:58:02;;;;;;;2.67;1.57;;;39.80;1.00;;;;;;5000404;28;20525;-82
2022/07/28 13:00:30;;;;;;;4.90;1.43;;;39.00;1.00;;;;;;5002198;28;20474;-82
2022/07/28 13:02:58;;;;;;;4.13;1.60;;;38.40;1.00;;;;;;5010691;28;20429;-81